Columbia, North Carolina
Current Conditions -  °F | °C
As of 3:15 AM on Thursday 29 Jan 2015 (Local Time) from KEDE Reporting Station
Clear Clear  
Wind Chill: -4°   Ceiling: Unl
Heat Index: -4°   Visibility: 10mi
Dew Point: -9°   Wind: 3mph
Humidity: 68%   Direction: 350°N
Pressure: 30.34"   Gusts: NA
Location:  35.92°N, 76.25°W
Report Text: KEDE 290815Z AUTO 35003KT 10SM CLR M04/M09 A3034 RMK AO2 T10371088
Loading
Personal Weather Stations






























Interactive Weather Map New forecast layout! Learn more

10-Day Weather Forecast

Advertisements
Track Severe Weather on mobile